Historique des stations

Station météo de Château-Renault

Altitude de la station : 120 m







Données météorologiques pour le 01/10/2022
Date
Heure
Températures Humidité Point de rosée Vitesse
du vent
Direction Rafales Windchill Pression Pluviométrie
Cumul
Date
Heure
Températures Humidité Point de rosée Vitesse
du vent
Direction Rafales Windchill Pression Pluviométrie
Cumul
01/10/2022 17:3419.5 °C83 %16.7 °C6 km/hSE19 km/h19.4 1018 hPa1.3 mm
01/10/2022 17:1920.0 °C82 %16.7 °C10 km/hESE18 km/h20.0 1018 hPa1.3 mm
01/10/2022 17:0419.8 °C81 %16.7 °C8 km/hSE19 km/h20.0 1018 hPa1.3 mm
01/10/2022 16:4920.2 °C80 %16.7 °C8 km/hSE19 km/h20.0 1018 hPa1.3 mm
01/10/2022 16:3419.9 °C81 %16.7 °C3 km/hESE16 km/h20.0 1018 hPa1.3 mm
01/10/2022 16:1920.2 °C79 %16.7 °C6 km/hSE24 km/h20.0 1018 hPa1.3 mm
01/10/2022 16:0419.9 °C80 %16.1 °C6 km/hSE23 km/h20.0 1018 hPa1.3 mm
01/10/2022 15:4919.9 °C79 %16.1 °C5 km/hSE23 km/h20.0 1017 hPa1.3 mm
01/10/2022 15:3419.6 °C79 %16.1 °C18 km/hESE26 km/h17.8 1017 hPa1.3 mm
01/10/2022 15:1919.6 °C81 %16.1 °C8 km/hNE21 km/h19.4 1017 hPa1.3 mm
01/10/2022 15:0419.4 °C82 %16.1 °C10 km/hESE18 km/h19.4 1017 hPa1.3 mm
01/10/2022 14:5019.6 °C80 %16.1 °C11 km/hESE19 km/h18.9 1017 hPa1.3 mm
01/10/2022 14:3420.3 °C75 %15.6 °C10 km/hESE23 km/h20.6 1017 hPa1.3 mm
01/10/2022 14:1920.6 °C77 %16.7 °C3 km/hSE21 km/h20.6 1016 hPa1.3 mm
01/10/2022 14:0420.2 °C78 %16.1 °C18 km/hSSE23 km/h18.3 1016 hPa1.3 mm
01/10/2022 13:5019.9 °C82 %16.7 °C10 km/hESE23 km/h20.0 1016 hPa1.3 mm
01/10/2022 13:3519.8 °C83 %16.7 °C8 km/hSSE18 km/h20.0 1016 hPa1.3 mm
01/10/2022 13:2019.1 °C83 %16.1 °C16 km/hSE21 km/h17.8 1016 hPa1.3 mm
01/10/2022 13:0519.1 °C82 %16.1 °C11 km/hESE21 km/h18.3 1016 hPa1.3 mm
01/10/2022 12:5018.7 °C84 %16.1 °C13 km/hESE18 km/h18.3 1016 hPa1.3 mm
01/10/2022 12:3517.6 °C87 %15.6 °C3 km/hNE18 km/h17.8 1016 hPa1.3 mm
01/10/2022 12:2017.2 °C86 %15.0 °C11 km/hE24 km/h16.7 1016 hPa1.3 mm
01/10/2022 12:0517.5 °C90 %16.1 °C6 km/hESE18 km/h17.8 1015 hPa1.3 mm
01/10/2022 11:5017.7 °C91 %16.1 °C10 km/hESE18 km/h17.8 1015 hPa1.3 mm
01/10/2022 11:3517.6 °C91 %16.1 °C8 km/hESE18 km/h17.8 1015 hPa1.3 mm
01/10/2022 11:2017.5 °C93 %16.7 °C3 km/hESE14 km/h17.8 1015 hPa1.3 mm
01/10/2022 11:0517.3 °C94 %16.7 °C3 km/hE16 km/h17.2 1015 hPa1.3 mm
01/10/2022 10:5017.2 °C94 %16.1 °C5 km/hESE18 km/h17.2 1014 hPa1.3 mm
01/10/2022 10:3417.0 °C95 %16.1 °C5 km/hE16 km/h17.2 1015 hPa1.3 mm
01/10/2022 10:1916.8 °C95 %16.1 °C6 km/hENE21 km/h16.7 1014 hPa1.3 mm
01/10/2022 10:0416.7 °C95 %16.1 °C5 km/hESE14 km/h16.7 1014 hPa1.3 mm
01/10/2022 09:4916.6 °C95 %16.1 °C6 km/hESE13 km/h16.7 1014 hPa1.3 mm
01/10/2022 09:3416.5 °C95 %15.6 °C8 km/hENE13 km/h16.7 1013 hPa1.3 mm
01/10/2022 09:1916.4 °C95 %15.6 °C5 km/hSE10 km/h16.7 1013 hPa1.3 mm
01/10/2022 09:0416.2 °C96 %15.6 °C5 km/hSE13 km/h16.1 1013 hPa1.3 mm
01/10/2022 08:4916.1 °C96 %15.6 °C8 km/hSE14 km/h16.1 1013 hPa1.3 mm
01/10/2022 08:3416.1 °C96 %15.6 °C3 km/hESE18 km/h16.1 1013 hPa1.3 mm
01/10/2022 08:1915.9 °C96 %15.6 °C6 km/hSE14 km/h16.1 1012 hPa1.3 mm
01/10/2022 08:0415.7 °C96 %15.0 °C3 km/hE18 km/h15.6 1012 hPa1.3 mm
01/10/2022 07:4915.5 °C96 %15.0 °C6 km/hSE10 km/h15.6 1012 hPa1.3 mm
01/10/2022 07:3415.3 °C96 %14.4 °C10 km/hNE11 km/h15.0 1012 hPa1.3 mm
01/10/2022 07:1915.1 °C96 %14.4 °C6 km/hSE14 km/h15.0 1012 hPa1.3 mm
01/10/2022 07:0514.9 °C95 %14.4 °C5 km/hNE13 km/h15.0 1012 hPa1.3 mm
01/10/2022 06:5014.8 °C95 %13.9 °C11 km/hE14 km/h14.4 1012 hPa1.3 mm
01/10/2022 06:3514.7 °C95 %13.9 °C2 km/hENE16 km/h14.4 1012 hPa1.3 mm
01/10/2022 06:2014.5 °C95 %13.9 °C10 km/hNE18 km/h13.9 1012 hPa1.3 mm
01/10/2022 06:0514.3 °C95 %13.3 °C10 km/hN18 km/h13.9 1011 hPa1.3 mm
01/10/2022 05:5014.2 °C95 %13.3 °C5 km/hSSE16 km/h14.4 1011 hPa1.3 mm
01/10/2022 05:3514.1 °C95 %13.3 °C6 km/hE19 km/h13.9 1011 hPa1.3 mm
01/10/2022 05:2014.0 °C95 %13.3 °C10 km/hNNE23 km/h13.3 1011 hPa1.3 mm
01/10/2022 05:0513.9 °C94 %12.8 °C5 km/hSSE18 km/h13.9 1011 hPa1.3 mm
01/10/2022 04:5013.8 °C94 %12.8 °C14 km/hE18 km/h12.2 1012 hPa1.3 mm
01/10/2022 04:3513.8 °C94 %12.8 °C5 km/hNNE18 km/h13.9 1012 hPa1.3 mm
01/10/2022 04:2013.7 °C94 %12.8 °C8 km/hNNE16 km/h13.3 1012 hPa1.3 mm
01/10/2022 04:0513.6 °C94 %12.8 °C6 km/hN16 km/h13.3 1012 hPa1.3 mm
01/10/2022 03:5013.4 °C94 %12.8 °C11 km/hNE21 km/h12.2 1012 hPa1.3 mm
01/10/2022 03:3513.4 °C94 %12.8 °C2 km/hE24 km/h13.3 1012 hPa1.3 mm
01/10/2022 03:2013.4 °C93 %12.2 °C3 km/hNE18 km/h13.3 1012 hPa1.3 mm
01/10/2022 03:0513.3 °C93 %12.2 °C6 km/hE19 km/h13.3 1012 hPa1.3 mm
01/10/2022 02:5513.3 °C93 %12.2 °C6 km/hN19 km/h13.3 1012 hPa1.3 mm
01/10/2022 02:4013.2 °C93 %12.2 °C3 km/hNE19 km/h13.3 1012 hPa1.3 mm
01/10/2022 02:2513.1 °C92 %11.7 °C8 km/hNNE21 km/h12.8 1013 hPa1.3 mm
01/10/2022 02:1012.9 °C93 %11.7 °C10 km/hN21 km/h11.7 1012 hPa1.3 mm
01/10/2022 01:5512.9 °C93 %11.7 °C5 km/hNNO21 km/h12.8 1013 hPa1.3 mm
01/10/2022 01:3412.8 °C93 %11.7 °C3 km/hSE19 km/h12.8 1013 hPa1.3 mm
01/10/2022 01:1912.7 °C92 %11.7 °C6 km/hNNE13 km/h12.8 1013 hPa1 mm
01/10/2022 01:0412.7 °C92 %11.7 °C8 km/hNE14 km/h12.2 1013 hPa1 mm
01/10/2022 00:4912.7 °C91 %11.1 °C2 km/hENE13 km/h12.8 1014 hPa0.8 mm
01/10/2022 00:3412.7 °C90 %11.1 °C13 km/hN13 km/h11.1 1014 hPa0.5 mm
01/10/2022 00:2012.7 °C90 %11.1 °C3 km/hN14 km/h12.8 1014 hPa0.3 mm
01/10/2022 00:0612.6 °C89 %11.1 °C3 km/hENE16 km/h12.8 1014 hPa-


Minima :

Température : 12.6 °C
Humidité : 75 %
Point de rosée : 11.1 °C
Vent moyen : 2 km/h
Windchill : 11.1
Pression atm. : 1011 hPa
Maxima :

Température : 20.6 °C
Humidité : 96 %
Point de rosée : 16.7 °C
Vent moyen : 18 km/h
Windchill : 20.6
Pression atm. : 1018 hPa
Rafales max : 26 km/h
Cumul de pluie sur 24H : 1.3 mm

Chateau-RENAULT est une commune du département Indre-et-Loire (37).
La station météorologique du réseau de l'association la plus proche de Château-Renault est celle de Véretz



Icône Facebook Association Météo Centre Icône Twitter Association Météo Centre Icône Chaîne Youtube Association Météo Centre Icône contact Association Météo Centre Icône Insta Association Météo Centre